createdAt,value
2022-08-29T00:01:12.534Z,9.60
2022-08-29T00:03:40.922Z,9.07
2022-08-29T00:06:08.158Z,9.40
2022-08-29T00:08:35.152Z,8.82
2022-08-29T00:11:02.429Z,9.73
2022-08-29T00:13:29.739Z,9.18
2022-08-29T00:15:56.740Z,8.90
2022-08-29T00:18:23.843Z,8.65
2022-08-29T00:20:51.090Z,8.70
2022-08-29T00:23:18.255Z,8.50
2022-08-29T00:25:45.490Z,9.05
2022-08-29T00:28:12.800Z,9.02
2022-08-29T00:30:40.087Z,9.45
2022-08-29T00:33:07.714Z,8.48
2022-08-29T00:35:37.316Z,8.60
2022-08-29T00:38:06.344Z,8.35
2022-08-29T00:40:38.495Z,7.68
2022-08-29T00:43:06.536Z,8.00
2022-08-29T00:45:34.535Z,8.50
2022-08-29T00:48:10.472Z,8.07
2022-08-29T00:50:55.078Z,8.57
2022-08-29T00:53:31.839Z,7.97
2022-08-29T00:55:59.924Z,7.97
2022-08-29T00:58:32.305Z,8.13
2022-08-29T01:00:59.781Z,8.77
2022-08-29T01:03:27.657Z,8.93
2022-08-29T01:05:54.840Z,8.27
2022-08-29T01:08:21.834Z,8.45
2022-08-29T01:11:07.328Z,8.68
2022-08-29T01:13:39.438Z,8.30
2022-08-29T01:16:08.393Z,8.30
2022-08-29T01:18:37.794Z,8.32
2022-08-29T01:21:22.094Z,9.30
2022-08-29T01:23:53.667Z,8.63
2022-08-29T01:26:22.414Z,9.48
2022-08-29T01:28:52.095Z,9.07
2022-08-29T01:31:42.186Z,8.88
2022-08-29T01:34:12.210Z,8.77
2022-08-29T01:36:53.595Z,9.57
2022-08-29T01:39:23.098Z,9.18
2022-08-29T01:41:50.421Z,9.57
2022-08-29T01:44:20.367Z,8.75
2022-08-29T01:46:54.009Z,9.15
2022-08-29T01:49:22.161Z,8.73
2022-08-29T01:51:49.535Z,9.48
2022-08-29T01:54:17.613Z,8.85
2022-08-29T01:56:48.409Z,8.73
2022-08-29T01:59:17.654Z,8.35
2022-08-29T02:01:50.550Z,8.95
2022-08-29T02:04:17.960Z,8.23
2022-08-29T02:06:45.763Z,8.25
2022-08-29T02:09:12.827Z,8.13
2022-08-29T02:11:40.046Z,8.55
2022-08-29T02:14:09.788Z,8.27
2022-08-29T02:16:46.178Z,8.50
2022-08-29T02:19:13.295Z,8.25
2022-08-29T02:21:41.212Z,8.10
2022-08-29T02:24:24.428Z,8.00
2022-08-29T02:26:52.604Z,8.75
2022-08-29T02:29:19.522Z,8.82
2022-08-29T02:31:46.633Z,8.75
2022-08-29T02:34:13.975Z,8.30
2022-08-29T02:36:41.555Z,8.82
2022-08-29T02:39:09.902Z,8.13
2022-08-29T02:41:38.010Z,8.70
2022-08-29T02:44:05.574Z,8.68
2022-08-29T02:46:32.644Z,8.88
2022-08-29T02:49:00.954Z,8.85
2022-08-29T02:51:30.955Z,8.23
2022-08-29T02:53:59.189Z,9.57
2022-08-29T02:56:26.495Z,8.60
2022-08-29T02:58:53.428Z,7.85
2022-08-29T03:01:22.672Z,9.23
2022-08-29T03:03:52.943Z,8.93
2022-08-29T03:06:20.791Z,9.63
2022-08-29T03:08:47.813Z,8.80
2022-08-29T03:11:16.073Z,8.27
2022-08-29T03:13:44.469Z,8.93
2022-08-29T03:16:12.014Z,9.02
2022-08-29T03:18:39.096Z,9.35
2022-08-29T03:21:13.639Z,9.88
2022-08-29T03:23:40.551Z,10.48
2022-08-29T03:26:07.920Z,10.05
2022-08-29T03:28:34.881Z,9.68
2022-08-29T03:31:01.866Z,9.50
2022-08-29T03:33:28.917Z,9.82
2022-08-29T03:35:55.917Z,9.90
2022-08-29T03:38:22.959Z,9.23
2022-08-29T03:40:49.939Z,9.80
2022-08-29T03:43:16.977Z,9.60
2022-08-29T03:45:45.269Z,9.60
2022-08-29T03:48:12.223Z,9.38
2022-08-29T03:50:39.201Z,8.98
2022-08-29T03:53:06.172Z,9.60
2022-08-29T03:55:33.103Z,9.52
2022-08-29T03:58:00.142Z,9.68
2022-08-29T04:00:27.169Z,9.15
2022-08-29T04:02:55.618Z,9.43
2022-08-29T04:05:22.975Z,9.00
2022-08-29T04:07:53.108Z,9.90
2022-08-29T04:10:31.845Z,9.25
2022-08-29T04:12:58.877Z,9.82
2022-08-29T04:15:28.140Z,9.02
2022-08-29T04:17:57.791Z,9.82
2022-08-29T04:20:32.186Z,10.45
2022-08-29T04:23:00.269Z,9.30
2022-08-29T04:25:33.909Z,9.52
2022-08-29T04:28:09.988Z,8.80
2022-08-29T04:30:38.294Z,9.63
2022-08-29T04:33:05.351Z,9.93
2022-08-29T04:35:32.433Z,9.68
2022-08-29T04:37:59.399Z,10.20
2022-08-29T04:40:26.404Z,9.80
2022-08-29T04:42:53.509Z,8.98
2022-08-29T04:45:22.407Z,9.98
2022-08-29T04:47:49.603Z,9.50
2022-08-29T04:50:19.317Z,9.63
2022-08-29T04:52:47.170Z,9.50
2022-08-29T04:55:19.547Z,9.48
2022-08-29T04:57:50.451Z,10.35
2022-08-29T05:00:22.229Z,10.05
2022-08-29T05:02:49.283Z,9.83
2022-08-29T05:05:18.031Z,8.65
2022-08-29T05:07:46.157Z,10.00
2022-08-29T05:10:17.880Z,9.93
2022-08-29T05:12:45.287Z,9.17
2022-08-29T05:15:14.127Z,8.75
2022-08-29T05:17:41.828Z,8.65
2022-08-29T05:20:10.022Z,9.80
2022-08-29T05:22:38.802Z,10.13
2022-08-29T05:25:06.363Z,10.95
2022-08-29T05:27:33.812Z,12.30
2022-08-29T05:30:01.813Z,12.65
2022-08-29T05:32:28.780Z,11.02
2022-08-29T05:34:56.223Z,11.52
2022-08-29T05:37:23.675Z,8.70
2022-08-29T05:39:51.152Z,8.85
2022-08-29T05:42:22.192Z,9.05
2022-08-29T05:44:49.839Z,11.73
2022-08-29T05:47:18.110Z,12.40
2022-08-29T05:49:46.809Z,10.40
2022-08-29T05:52:17.225Z,8.93
2022-08-29T05:54:45.179Z,10.10
2022-08-29T05:57:18.982Z,8.15
2022-08-29T05:59:47.605Z,8.52
2022-08-29T06:02:15.157Z,8.68
2022-08-29T06:04:42.232Z,8.50
2022-08-29T06:07:10.030Z,8.32
2022-08-29T06:09:38.757Z,8.05
2022-08-29T06:12:08.594Z,8.20
2022-08-29T06:14:35.895Z,9.52
2022-08-29T06:17:05.401Z,7.05
2022-08-29T06:19:35.188Z,7.47
2022-08-29T06:22:03.571Z,7.15
2022-08-29T06:24:38.791Z,7.70
2022-08-29T06:27:08.391Z,7.47
2022-08-29T06:29:42.937Z,7.63
2022-08-29T06:32:11.206Z,6.80
2022-08-29T06:34:38.150Z,7.93
2022-08-29T06:37:05.138Z,7.45
2022-08-29T06:39:32.067Z,7.63
2022-08-29T06:41:58.988Z,8.73
2022-08-29T06:44:26.721Z,7.68
2022-08-29T06:46:58.458Z,7.80
2022-08-29T06:49:26.208Z,7.28
2022-08-29T06:51:57.633Z,7.55
2022-08-29T06:54:28.049Z,6.03
2022-08-29T06:56:57.178Z,7.03
2022-08-29T06:59:27.235Z,6.70
2022-08-29T07:01:57.274Z,6.28
2022-08-29T07:04:26.614Z,6.30
2022-08-29T07:06:54.214Z,6.32
2022-08-29T07:09:21.339Z,6.93
2022-08-29T07:11:48.298Z,6.47
2022-08-29T07:14:15.354Z,7.00
2022-08-29T07:16:43.060Z,6.63
2022-08-29T07:19:19.887Z,6.20
2022-08-29T07:21:49.622Z,5.40
2022-08-29T07:24:16.619Z,5.60
2022-08-29T07:26:44.862Z,6.20
2022-08-29T07:29:16.995Z,6.15
2022-08-29T07:31:45.265Z,7.22
2022-08-29T07:34:12.916Z,6.43
2022-08-29T07:36:40.778Z,6.25
2022-08-29T07:39:16.470Z,6.82
2022-08-29T07:41:44.794Z,6.18
2022-08-29T07:44:14.126Z,6.40
2022-08-29T07:46:42.031Z,6.07
2022-08-29T07:49:09.939Z,6.50
2022-08-29T07:51:36.879Z,5.97
2022-08-29T07:54:04.876Z,6.82
2022-08-29T07:56:37.925Z,7.07
2022-08-29T07:59:07.305Z,6.95
2022-08-29T08:01:35.794Z,7.18
2022-08-29T08:04:03.375Z,7.35
2022-08-29T08:06:30.927Z,7.50
2022-08-29T08:08:58.095Z,7.50
2022-08-29T08:11:27.053Z,7.30
2022-08-29T08:13:55.836Z,7.72
2022-08-29T08:16:25.227Z,7.35
2022-08-29T08:18:55.320Z,7.72
2022-08-29T08:21:23.427Z,7.93
2022-08-29T08:23:50.916Z,7.95
2022-08-29T08:26:18.237Z,7.35
2022-08-29T08:28:45.703Z,8.18
2022-08-29T08:31:15.228Z,7.97
2022-08-29T08:33:44.390Z,8.13
2022-08-29T08:36:20.882Z,7.45
2022-08-29T08:38:49.502Z,8.65
2022-08-29T08:41:26.447Z,7.93
2022-08-29T08:43:57.765Z,7.63
2022-08-29T08:46:36.509Z,7.15
2022-08-29T08:49:09.079Z,8.00
2022-08-29T08:51:39.679Z,6.60
2022-08-29T08:54:14.958Z,6.55
2022-08-29T08:56:49.323Z,6.15
2022-08-29T08:59:31.668Z,6.57
2022-08-29T09:04:49.727Z,6.32
2022-08-29T09:07:39.680Z,6.03
2022-08-29T09:10:48.827Z,6.07
2022-08-29T09:13:37.695Z,5.65
2022-08-29T09:16:25.434Z,5.53
2022-08-29T09:18:56.972Z,6.15
2022-08-29T09:21:40.704Z,5.22
2022-08-29T09:24:15.528Z,5.45
2022-08-29T09:26:42.439Z,5.40
2022-08-29T09:29:12.269Z,5.70
2022-08-29T09:31:41.228Z,5.22
2022-08-29T09:34:13.457Z,5.15
2022-08-29T09:36:52.476Z,5.22
2022-08-29T09:39:31.423Z,5.05
2022-08-29T09:42:13.922Z,5.28
2022-08-29T09:44:51.165Z,4.70
2022-08-29T09:47:33.056Z,4.68
2022-08-29T09:50:18.947Z,4.63
2022-08-29T09:52:56.349Z,4.65
2022-08-29T09:55:42.590Z,4.90
2022-08-29T09:58:19.242Z,5.28
2022-08-29T10:01:09.871Z,4.35
2022-08-29T10:03:44.503Z,4.93
2022-08-29T10:06:24.027Z,4.97
2022-08-29T10:09:12.441Z,5.15
2022-08-29T10:11:56.194Z,4.80
2022-08-29T10:14:32.772Z,5.15
2022-08-29T10:17:29.206Z,5.05
2022-08-29T10:19:56.217Z,5.25
2022-08-29T10:22:32.551Z,4.93
2022-08-29T10:25:17.240Z,5.07
2022-08-29T10:28:00.526Z,4.85
2022-08-29T10:30:34.351Z,4.22
2022-08-29T10:33:42.181Z,4.40
2022-08-29T10:36:33.955Z,4.90
2022-08-29T10:39:19.232Z,4.80
2022-08-29T10:42:04.710Z,5.03
2022-08-29T10:44:50.602Z,4.90
2022-08-29T10:47:39.642Z,4.80
2022-08-29T10:50:34.102Z,4.60
2022-08-29T10:53:17.388Z,4.70
2022-08-29T10:55:56.005Z,4.75
2022-08-29T10:58:22.952Z,5.10
2022-08-29T11:01:09.560Z,4.90
2022-08-29T11:04:17.736Z,4.78
2022-08-29T11:07:03.482Z,4.60
2022-08-29T11:09:37.665Z,5.18
2022-08-29T11:12:33.431Z,4.25
2022-08-29T11:15:10.011Z,4.63
2022-08-29T11:17:41.260Z,4.50
2022-08-29T11:20:21.861Z,4.50
2022-08-29T11:23:03.152Z,4.55
2022-08-29T11:25:33.167Z,5.07
2022-08-29T11:28:35.348Z,5.20
2022-08-29T11:31:12.697Z,4.40
2022-08-29T11:33:55.814Z,4.57
2022-08-29T11:36:26.275Z,4.50
2022-08-29T11:39:07.869Z,4.50
2022-08-29T11:41:41.097Z,5.10
2022-08-29T11:44:17.534Z,4.13
2022-08-29T11:46:48.976Z,4.30
2022-08-29T11:49:37.102Z,3.80
2022-08-29T11:52:11.329Z,4.28
2022-08-29T11:54:40.260Z,4.28
2022-08-29T11:57:10.420Z,4.50
2022-08-29T11:59:49.608Z,4.22
2022-08-29T12:02:29.190Z,4.32
2022-08-29T12:04:56.117Z,4.30
2022-08-29T12:08:14.341Z,3.97
2022-08-29T12:10:55.980Z,4.45
2022-08-29T12:13:48.708Z,4.63
2022-08-29T12:16:19.592Z,3.63
2022-08-29T12:18:52.295Z,3.58
2022-08-29T12:21:40.501Z,3.60
2022-08-29T12:24:29.043Z,3.58
2022-08-29T12:26:56.337Z,3.50
2022-08-29T12:29:44.927Z,3.10
2022-08-29T12:32:47.684Z,4.10
2022-08-29T12:35:17.696Z,3.63
2022-08-29T12:38:06.195Z,3.00
2022-08-29T12:41:04.028Z,3.90
2022-08-29T12:43:42.707Z,4.03
2022-08-29T12:46:33.342Z,3.38
2022-08-29T12:49:42.751Z,3.60
2022-08-29T12:52:28.761Z,3.00
2022-08-29T12:55:16.628Z,3.72
2022-08-29T12:57:45.730Z,3.58
2022-08-29T13:00:22.586Z,3.60
2022-08-29T13:03:15.219Z,4.25
2022-08-29T13:05:43.440Z,3.90
2022-08-29T13:08:16.666Z,3.50
2022-08-29T13:10:59.671Z,3.78
2022-08-29T13:13:27.433Z,3.65
2022-08-29T13:16:01.612Z,3.47
2022-08-29T13:18:30.225Z,3.70
2022-08-29T13:21:13.316Z,3.67
2022-08-29T13:23:47.736Z,3.83
2022-08-29T13:26:14.736Z,3.25
2022-08-29T13:29:07.735Z,3.60
2022-08-29T13:31:37.178Z,2.67
2022-08-29T13:34:09.425Z,2.83
2022-08-29T13:36:47.523Z,2.88
2022-08-29T13:39:24.989Z,2.63
2022-08-29T13:41:57.756Z,2.50
2022-08-29T13:44:48.994Z,2.60
2022-08-29T13:47:31.208Z,2.53
2022-08-29T13:50:02.699Z,3.25
2022-08-29T13:52:31.978Z,2.83
2022-08-29T13:55:02.805Z,2.65
2022-08-29T13:57:31.653Z,2.90
2022-08-29T13:59:59.304Z,2.75
2022-08-29T14:02:27.970Z,2.55
2022-08-29T14:04:55.195Z,2.70
2022-08-29T14:07:28.322Z,2.30
2022-08-29T14:09:56.103Z,3.08
2022-08-29T14:12:33.882Z,2.75
2022-08-29T14:15:06.751Z,2.38
2022-08-29T14:17:37.157Z,2.55
2022-08-29T14:20:07.113Z,2.47
2022-08-29T14:22:34.152Z,2.05
2022-08-29T14:25:01.727Z,2.33
2022-08-29T14:27:29.803Z,2.55
2022-08-29T14:29:56.765Z,2.20
2022-08-29T14:32:24.462Z,2.40
2022-08-29T14:34:54.179Z,2.55
2022-08-29T14:37:21.712Z,2.30
2022-08-29T14:39:49.888Z,2.60
2022-08-29T14:42:17.521Z,2.95
2022-08-29T14:44:44.829Z,2.30
2022-08-29T14:47:11.885Z,2.20
2022-08-29T14:49:39.211Z,2.75
2022-08-29T14:52:06.433Z,2.08
2022-08-29T14:54:33.638Z,2.53
2022-08-29T14:57:01.017Z,2.10
2022-08-29T14:59:28.163Z,1.80
2022-08-29T15:01:55.656Z,2.10
2022-08-29T15:04:36.882Z,2.92
2022-08-29T15:07:13.989Z,2.00
2022-08-29T15:09:43.944Z,1.90
2022-08-29T15:12:13.411Z,1.73
2022-08-29T15:14:41.545Z,1.90
2022-08-29T15:17:08.637Z,2.28
2022-08-29T15:22:24.756Z,2.13
2022-08-29T15:24:52.428Z,3.63
2022-08-29T15:27:26.858Z,2.30
2022-08-29T15:29:54.317Z,2.50
2022-08-29T15:32:21.469Z,2.20
2022-08-29T15:34:49.227Z,2.60
2022-08-29T15:37:17.009Z,2.70
2022-08-29T15:39:44.105Z,2.50
2022-08-29T15:42:17.126Z,2.10
2022-08-29T15:44:44.679Z,2.28
2022-08-29T15:47:12.572Z,2.28
2022-08-29T15:49:41.547Z,1.92
2022-08-29T15:52:08.511Z,2.10
2022-08-29T15:54:36.120Z,1.70
2022-08-29T15:57:03.666Z,1.90
2022-08-29T15:59:54.176Z,1.88
2022-08-29T16:02:18.107Z,1.80
2022-08-29T16:04:47.853Z,1.90
2022-08-29T16:07:16.929Z,1.90
2022-08-29T16:09:45.067Z,2.20
2022-08-29T16:12:12.423Z,3.33
2022-08-29T16:14:59.142Z,3.00
2022-08-29T16:17:29.806Z,3.13
2022-08-29T16:19:58.339Z,2.97
2022-08-29T16:22:27.802Z,3.17
2022-08-29T16:24:54.915Z,3.80
2022-08-29T16:27:24.240Z,3.55
2022-08-29T16:29:52.991Z,4.10
2022-08-29T16:32:20.994Z,3.88
2022-08-29T16:34:47.939Z,4.57
2022-08-29T16:37:15.117Z,3.70
2022-08-29T16:39:42.122Z,3.45
2022-08-29T16:42:12.172Z,3.92
2022-08-29T16:44:40.217Z,3.42
2022-08-29T16:47:07.268Z,3.08
2022-08-29T16:49:34.425Z,3.17
2022-08-29T16:52:01.465Z,3.45
2022-08-29T16:54:28.655Z,3.05
2022-08-29T16:56:57.121Z,3.10
2022-08-29T16:59:24.313Z,3.03
2022-08-29T17:01:53.566Z,9.60
2022-08-29T17:04:24.392Z,3.60
2022-08-29T17:06:52.457Z,4.32
2022-08-29T17:09:22.356Z,3.22
2022-08-29T17:11:50.760Z,3.03
2022-08-29T17:14:21.047Z,2.92
2022-08-29T17:16:51.144Z,2.97
2022-08-29T17:19:18.613Z,3.45
2022-08-29T17:21:46.311Z,3.38
2022-08-29T17:24:13.741Z,4.95
2022-08-29T17:26:44.691Z,3.22
2022-08-29T17:29:11.692Z,3.42
2022-08-29T17:31:39.141Z,3.38
2022-08-29T17:34:07.944Z,6.85
2022-08-29T17:36:40.559Z,5.32
2022-08-29T17:39:08.809Z,4.32
2022-08-29T17:41:37.631Z,3.60
2022-08-29T17:44:07.132Z,3.83
2022-08-29T17:46:35.249Z,3.60
2022-08-29T17:49:07.428Z,3.20
2022-08-29T17:51:35.348Z,3.58
2022-08-29T17:54:03.604Z,3.47
2022-08-29T17:56:44.324Z,3.72
2022-08-29T17:59:12.746Z,3.10
2022-08-29T18:01:39.749Z,3.53
2022-08-29T18:04:06.857Z,3.33
2022-08-29T18:06:33.796Z,3.50
2022-08-29T18:09:00.928Z,3.55
2022-08-29T18:11:28.261Z,3.42
2022-08-29T18:13:55.473Z,3.90
2022-08-29T18:16:22.658Z,4.05
2022-08-29T18:18:51.661Z,4.30
2022-08-29T18:21:18.990Z,4.57
2022-08-29T18:23:46.495Z,3.67
2022-08-29T18:26:14.718Z,4.15
2022-08-29T18:28:41.838Z,5.55
2022-08-29T18:31:09.508Z,3.80
2022-08-29T18:33:59.133Z,4.40
2022-08-29T18:36:26.710Z,4.80
2022-08-29T18:38:53.947Z,4.78
2022-08-29T18:41:21.085Z,4.60
2022-08-29T18:43:47.984Z,5.20
2022-08-29T18:46:15.081Z,5.50
2022-08-29T18:48:44.909Z,4.38
2022-08-29T18:51:12.388Z,4.72
2022-08-29T18:53:39.906Z,4.00
2022-08-29T18:56:07.018Z,4.50
2022-08-29T18:58:35.316Z,4.80
2022-08-29T19:01:27.618Z,4.82
2022-08-29T19:06:32.877Z,4.82
2022-08-29T19:09:00.184Z,6.00
2022-08-29T19:11:28.386Z,4.43
2022-08-29T19:13:55.409Z,3.78
2022-08-29T19:16:24.064Z,4.28
2022-08-29T19:18:51.653Z,4.82
2022-08-29T19:21:18.862Z,4.47
2022-08-29T19:23:52.158Z,4.50
2022-08-29T19:26:29.453Z,3.90
2022-08-29T19:28:59.157Z,4.40
2022-08-29T19:31:39.050Z,6.35
2022-08-29T19:34:06.424Z,4.18
2022-08-29T19:36:34.197Z,6.13
2022-08-29T19:39:02.009Z,4.72
2022-08-29T19:41:29.776Z,4.45
2022-08-29T19:43:56.823Z,4.78
2022-08-29T19:46:27.941Z,4.90
2022-08-29T19:48:55.464Z,4.63
2022-08-29T19:51:24.704Z,4.20
2022-08-29T19:53:52.306Z,4.18
2022-08-29T19:56:19.286Z,5.28
2022-08-29T19:58:46.345Z,4.28
2022-08-29T20:01:17.379Z,4.68
2022-08-29T20:03:46.003Z,4.15
2022-08-29T20:06:16.298Z,4.43
2022-08-29T20:08:48.202Z,4.05
2022-08-29T20:11:24.659Z,4.43
2022-08-29T20:13:53.759Z,4.50
2022-08-29T20:16:24.387Z,4.05
2022-08-29T20:18:52.813Z,3.80
2022-08-29T20:21:23.606Z,4.00
2022-08-29T20:23:57.821Z,4.47
2022-08-29T20:26:28.881Z,3.60
2022-08-29T20:28:59.019Z,4.70
2022-08-29T20:31:27.103Z,4.20
2022-08-29T20:33:54.270Z,3.97
2022-08-29T20:36:42.284Z,4.28
2022-08-29T20:39:13.304Z,4.20
2022-08-29T20:41:40.302Z,3.67
2022-08-29T20:44:07.841Z,3.80
2022-08-29T20:46:40.544Z,4.15
2022-08-29T20:49:09.004Z,8.10
2022-08-29T20:51:37.548Z,4.50
2022-08-29T20:54:05.432Z,4.50
2022-08-29T20:56:32.946Z,4.28
2022-08-29T20:59:00.348Z,4.70
2022-08-29T21:01:27.492Z,6.20
2022-08-29T21:04:13.261Z,5.20
2022-08-29T21:06:40.448Z,4.90
2022-08-29T21:09:08.288Z,6.03
2022-08-29T21:11:35.338Z,6.80
2022-08-29T21:14:02.328Z,5.32
2022-08-29T21:16:29.669Z,4.20
2022-08-29T21:18:56.737Z,4.82
2022-08-29T21:21:25.112Z,4.55
2022-08-29T21:23:52.528Z,4.10
2022-08-29T21:26:19.584Z,4.43
2022-08-29T21:28:49.669Z,4.53
2022-08-29T21:31:17.162Z,5.18
2022-08-29T21:33:46.365Z,4.57
2022-08-29T21:36:24.509Z,4.78
2022-08-29T21:39:01.891Z,5.25
2022-08-29T21:41:31.127Z,4.80
2022-08-29T21:43:58.226Z,4.90
2022-08-29T21:46:31.092Z,6.88
2022-08-29T21:49:00.717Z,5.90
2022-08-29T21:51:29.596Z,5.10
2022-08-29T21:53:58.316Z,5.15
2022-08-29T21:56:27.813Z,5.28
2022-08-29T21:58:56.270Z,5.10
2022-08-29T22:01:27.273Z,5.53
2022-08-29T22:03:55.081Z,4.60
2022-08-29T22:06:22.339Z,4.43
2022-08-29T22:08:49.451Z,4.90
2022-08-29T22:11:24.053Z,4.38
2022-08-29T22:13:52.785Z,4.32
2022-08-29T22:16:30.151Z,4.22
2022-08-29T22:18:57.162Z,4.45
2022-08-29T22:21:24.851Z,4.45
2022-08-29T22:23:52.070Z,4.18
2022-08-29T22:26:19.121Z,4.10
2022-08-29T22:28:46.295Z,4.70
2022-08-29T22:31:13.972Z,4.10
2022-08-29T22:33:41.315Z,4.38
2022-08-29T22:36:10.299Z,4.38
2022-08-29T22:38:37.385Z,4.20
2022-08-29T22:41:08.181Z,4.07
2022-08-29T22:43:35.737Z,3.95
2022-08-29T22:46:02.877Z,4.15
2022-08-29T22:48:29.887Z,4.15
2022-08-29T22:50:58.476Z,4.43
2022-08-29T22:53:26.009Z,3.83
2022-08-29T22:55:52.965Z,4.78
2022-08-29T22:58:19.894Z,4.30
2022-08-29T23:00:46.891Z,4.25
2022-08-29T23:03:13.962Z,3.85
2022-08-29T23:05:41.096Z,4.22
2022-08-29T23:08:08.039Z,4.50
2022-08-29T23:10:35.033Z,4.50
2022-08-29T23:13:02.003Z,4.55
2022-08-29T23:15:28.950Z,4.75
2022-08-29T23:17:55.982Z,4.78
2022-08-29T23:20:23.878Z,4.60
2022-08-29T23:22:56.208Z,4.95
2022-08-29T23:25:24.482Z,4.78
2022-08-29T23:27:51.425Z,4.00
2022-08-29T23:30:18.438Z,4.55
2022-08-29T23:32:45.410Z,4.40
2022-08-29T23:35:12.638Z,4.25
2022-08-29T23:37:39.659Z,4.40
2022-08-29T23:40:07.422Z,4.50
2022-08-29T23:42:34.443Z,4.30
2022-08-29T23:45:01.362Z,4.32
2022-08-29T23:47:28.604Z,4.38
2022-08-29T23:49:55.544Z,4.13
2022-08-29T23:52:22.494Z,4.13
2022-08-29T23:54:49.618Z,4.47
2022-08-29T23:57:16.549Z,4.53
